RÉSULTATS    Les Courses des Cinq Moulins - Édition du 30/04/2017


Vous pouvez changer la distance ici.

Vous pouvez changer la distance ici.

Classement PDF Général Classement PDF Alphabétique /results/<span class='glyphicon glyphicon-picture'></span> Classement Temps Réel - Temps Puce

256 participants - 173 Hommes - 83 Femmes
51 licenciés (20%) - 205 non-licenciés (80%)

Temps moyen : 00:52:33




Pos. Temps Nom - Prénom Dossard Catégorie km/h
224 01:03:57 LE TROQUER Celine 579 SEF (22 / 31) 9.3
221 01:03:49 POULET Philippe 626 V2M (34 / 36) 9.4
220 01:03:48 CRESPIN Isabelle 625 V2F (7 / 13) 9.4
219 01:03:47 LE TROQUER Daniel 566 V3M (16 / 18) 9.4
217 01:03:26 LIREUX Jacques 758 V2M (33 / 36) 9.4
214 01:02:48 ANGER Nelly 561 V2F (6 / 13) 9.5
211 01:02:15 DUBUT Mathilde 737 SEF (19 / 31) 9.6
209 01:01:51 LAGADEC Alain 512 V3M (14 / 18) 9.7
205 01:01:26 FOUCAULT Michel 553 V3M (13 / 18) 9.7
208 01:01:41 THOMAS Celine 736 SEF (18 / 31) 9.7
204 01:01:14 PIRIOU Jean luc 764 V3M (12 / 18) 9.8
203 01:00:59 PRIEUR Laure 723 V2F (5 / 13) 9.8
201 01:00:40 RIFFAULT Bertrand 720 V3M (11 / 18) 9.8
202 01:00:54 BONNERIC Pierre 568 V2M (32 / 36) 9.8
198 00:59:47 CALLIGARO Jean charles 529 V2M (31 / 36) 10.0
197 00:59:36 DELATTRE Francois 608 V1M (55 / 57) 10.0
196 00:59:35 JAVAULT Cyril 708 V1M (54 / 57) 10.0
195 00:59:34 SALIN Nathalie 574 V2F (4 / 13) 10.0
194 00:59:31 LEGOUE Philippe 547 V2M (30 / 36) 10.0
193 00:58:55 COLLIN Fabrice 520 V2M (29 / 36) 10.1
192 00:58:42 LOULIER Giovanni 518 SEM (41 / 44) 10.2
191 00:58:41 BRUNET Alexis 586 SEM (40 / 44) 10.2
189 00:58:39 MARIGNIER Alice 766 JUF (3 / 3) 10.2
188 00:58:39 BEHUE Thierry 686 V2M (28 / 36) 10.2
187 00:58:35 CERVEIRA Darcy 571 V1M (53 / 57) 10.2